Seven Seas Mariner — C6VV8 — position and weather

sailwx.info

Track history (hours):
 
Tides and Currents Weather Stations Pressure Air Temp Water Temp Dewpoint Dewpoint Depression Visibility Wind Speed Wind Dir Waves Ship Positions

Seven Seas Mariner

Last reported at 2018-Feb-24 11:59 UTC. Time now 2018-Feb-24 12:16 UTC.
Position S 22°54' W 043°11'.

Length 216 m; draft 7.2 m.

Type: Ship. MMSI: 311622000.

Date/timePositionNaut miles runAvg speedWind from/ knotsBaromVisibWave heightAir tempDewpointWater temp
2018-Feb-24 11:59S 22°54' W 043°11'0 0.0
2018-Feb-24 11:29S 22°54' W 043°11'0 0.0
2018-Feb-24 10:58S 22°54' W 043°11'0 0.1
2018-Feb-24 10:30S 22°54' W 043°11'2 3.9
2018-Feb-24 10:00S 22°54' W 043°09'612.1
2018-Feb-24 09:30S 22°60' W 043°07'611.1
2018-Feb-24 09:00S 23°05' W 043°04'4 8.7
2018-Feb-24 08:30S 23°09' W 043°02'510.4
2018-Feb-24 08:00S 23°14' W 043°00'8489.7
2018-Feb-24 08:00S 23°06' W 043°00'1020.7 050 / 81014.6 5.4 26.023.226.0
2018-Feb-24 07:30S 23°15' W 042°55'510.0
2018-Feb-24 06:59S 23°15' W 042°49'510.0
2018-Feb-24 06:26S 23°15' W 042°44'4 9.8
2018-Feb-24 06:00S 23°15' W 042°39'7 9.9
2018-Feb-24 05:20S 23°15' W 042°32'2 0.1
2018-Feb-23 06:11S 23°13' W 042°30'212.6
2018-Feb-23 06:00S 23°13' W 042°33'612.7
2018-Feb-23 05:31S 23°14' W 042°40'612.6
2018-Feb-23 05:00S 23°15' W 042°47'612.6
2018-Feb-23 04:30S 23°16' W 042°53'612.7
2018-Feb-23 04:00S 23°18' W 043°00'712.8
2018-Feb-23 03:30S 23°19' W 043°07'612.9
2018-Feb-23 03:01S 23°19' W 043°14'713.0
2018-Feb-23 02:30S 23°19' W 043°21'613.1
2018-Feb-23 02:00S 23°19' W 043°28'613.1
2018-Feb-23 01:31S 23°20' W 043°35'713.1
2018-Feb-23 01:00S 23°20' W 043°43'712.8
2018-Feb-23 00:29S 23°20' W 043°50'45 3.6
2018-Feb-22 12:00S 23°06' W 044°36'29 5.7 360 / 21009.3 27.024.327.0
2018-Feb-22 06:47S 23°11' W 044°04'3 7.8
2018-Feb-22 06:25S 23°08' W 044°04'0 0.8
2018-Feb-22 06:00S 23°08' W 044°05'0 0.2
2018-Feb-22 05:30S 23°08' W 044°05'0 0.1
2018-Feb-22 04:53S 23°08' W 044°05'0 0.2
2018-Feb-22 04:28S 23°08' W 044°04'0 0.2
2018-Feb-22 03:40S 23°08' W 044°05'0 0.2
2018-Feb-22 03:30S 23°08' W 044°05'0 0.4
2018-Feb-22 02:59S 23°08' W 044°05'5 0.9
2018-Feb-21 22:00S 23°06' W 044°00'6 2.8 170 / 211008.6 29.025.029.0
2018-Feb-21 20:00S 23°06' W 044°06'2 0.2 150 / 61007.6 29.026.330.0
2018-Feb-21 11:07S 23°08' W 044°05'2 9.7
2018-Feb-21 10:56S 23°09' W 044°04'14011.2
2018-Feb-20 22:28S 24°08' W 046°23'714.3
2018-Feb-20 22:00S 24°02' W 046°21'4 7.8
2018-Feb-20 21:29S 23°59' W 046°17'2 3.1
2018-Feb-20 20:55S 23°58' W 046°18'0 0.0
2018-Feb-20 20:25S 23°58' W 046°18'0 0.0
2018-Feb-20 19:43S 23°58' W 046°18'0 0.0
2018-Feb-20 19:25S 23°58' W 046°18'0 0.0
2018-Feb-20 18:49S 23°58' W 046°18'0 0.0
2018-Feb-20 18:30S 23°58' W 046°18'0 0.0
2018-Feb-20 18:00S 23°58' W 046°18'0 0.0
2018-Feb-20 17:30S 23°58' W 046°18'0 0.0
2018-Feb-20 16:17S 23°58' W 046°18'0 0.0
2018-Feb-20 15:41S 23°58' W 046°18'0 0.0
2018-Feb-20 15:23S 23°58' W 046°18'0 0.0
2018-Feb-20 14:59S 23°58' W 046°18'0 0.0
2018-Feb-20 14:29S 23°58' W 046°18'0 0.0
2018-Feb-20 13:46S 23°58' W 046°18'0 0.0
2018-Feb-20 13:16S 23°58' W 046°18'0 0.0
2018-Feb-20 12:52S 23°58' W 046°18'0 0.0
2018-Feb-20 12:28S 23°58' W 046°18'0 0.0
2018-Feb-20 11:45S 23°58' W 046°18'0 0.0
2018-Feb-20 11:27S 23°58' W 046°18'0 0.0
2018-Feb-20 11:00S 23°58' W 046°18'1 1.9
2018-Feb-20 10:30S 23°58' W 046°18'4 7.1
2018-Feb-20 10:00S 24°01' W 046°20'322 8.9
2018-Feb-18 22:00S 28°54' W 048°48'3718.3 060 / 251011.6 25.020.724.0
2018-Feb-18 20:00S 29°24' W 049°12'99 9.9 060 / 241009.8 26.023.224.0
2018-Feb-18 10:00S 30°48' W 050°12'117 5.8 050 / 231016.610.8 25.022.224.0
2018-Feb-17 14:00S 32°00' W 052°00'   090 / 151021.6
Track history (hours):
 
Tides and Currents Weather Stations Pressure Air Temp Water Temp Dewpoint Dewpoint Depression Visibility Wind Speed Wind Dir Waves Ship Positions

Seven Seas Mariner

Last reported at 2018-Feb-24 11:59 UTC. Time now 2018-Feb-24 12:16 UTC.
Position S 22°54' W 043°11'.

Length 216 m; draft 7.2 m.

Type: Ship. MMSI: 311622000.

Date/timePositionNaut miles runAvg speedWind from/ knotsBaromVisibWave heightAir tempDewpointWater temp
2018-Feb-24 11:59S 22°54' W 043°11'0 0.0
2018-Feb-24 11:29S 22°54' W 043°11'0 0.0
2018-Feb-24 10:58S 22°54' W 043°11'0 0.1
2018-Feb-24 10:30S 22°54' W 043°11'2 3.9
2018-Feb-24 10:00S 22°54' W 043°09'612.1
2018-Feb-24 09:30S 22°60' W 043°07'611.1
2018-Feb-24 09:00S 23°05' W 043°04'4 8.7
2018-Feb-24 08:30S 23°09' W 043°02'510.4
2018-Feb-24 08:00S 23°14' W 043°00'8489.7
2018-Feb-24 08:00S 23°06' W 043°00'1020.7 050 / 81014.6 5.4 26.023.226.0
2018-Feb-24 07:30S 23°15' W 042°55'510.0
2018-Feb-24 06:59S 23°15' W 042°49'510.0
2018-Feb-24 06:26S 23°15' W 042°44'4 9.8
2018-Feb-24 06:00S 23°15' W 042°39'7 9.9
2018-Feb-24 05:20S 23°15' W 042°32'2 0.1
2018-Feb-23 06:11S 23°13' W 042°30'212.6
2018-Feb-23 06:00S 23°13' W 042°33'612.7
2018-Feb-23 05:31S 23°14' W 042°40'612.6
2018-Feb-23 05:00S 23°15' W 042°47'612.6
2018-Feb-23 04:30S 23°16' W 042°53'612.7
2018-Feb-23 04:00S 23°18' W 043°00'712.8
2018-Feb-23 03:30S 23°19' W 043°07'612.9
2018-Feb-23 03:01S 23°19' W 043°14'713.0
2018-Feb-23 02:30S 23°19' W 043°21'613.1
2018-Feb-23 02:00S 23°19' W 043°28'613.1
2018-Feb-23 01:31S 23°20' W 043°35'713.1
2018-Feb-23 01:00S 23°20' W 043°43'712.8
2018-Feb-23 00:29S 23°20' W 043°50'45 3.6
2018-Feb-22 12:00S 23°06' W 044°36'29 5.7 360 / 21009.3 27.024.327.0
2018-Feb-22 06:47S 23°11' W 044°04'3 7.8
2018-Feb-22 06:25S 23°08' W 044°04'0 0.8
2018-Feb-22 06:00S 23°08' W 044°05'0 0.2
2018-Feb-22 05:30S 23°08' W 044°05'0 0.1
2018-Feb-22 04:53S 23°08' W 044°05'0 0.2
2018-Feb-22 04:28S 23°08' W 044°04'0 0.2
2018-Feb-22 03:40S 23°08' W 044°05'0 0.2
2018-Feb-22 03:30S 23°08' W 044°05'0 0.4
2018-Feb-22 02:59S 23°08' W 044°05'5 0.9
2018-Feb-21 22:00S 23°06' W 044°00'6 2.8 170 / 211008.6 29.025.029.0
2018-Feb-21 20:00S 23°06' W 044°06'2 0.2 150 / 61007.6 29.026.330.0
2018-Feb-21 11:07S 23°08' W 044°05'2 9.7
2018-Feb-21 10:56S 23°09' W 044°04'14011.2
2018-Feb-20 22:28S 24°08' W 046°23'714.3
2018-Feb-20 22:00S 24°02' W 046°21'4 7.8
2018-Feb-20 21:29S 23°59' W 046°17'2 3.1
2018-Feb-20 20:55S 23°58' W 046°18'0 0.0
2018-Feb-20 20:25S 23°58' W 046°18'0 0.0
2018-Feb-20 19:43S 23°58' W 046°18'0 0.0
2018-Feb-20 19:25S 23°58' W 046°18'0 0.0
2018-Feb-20 18:49S 23°58' W 046°18'0 0.0
2018-Feb-20 18:30S 23°58' W 046°18'0 0.0
2018-Feb-20 18:00S 23°58' W 046°18'0 0.0
2018-Feb-20 17:30S 23°58' W 046°18'0 0.0
2018-Feb-20 16:17S 23°58' W 046°18'0 0.0
2018-Feb-20 15:41S 23°58' W 046°18'0 0.0
2018-Feb-20 15:23S 23°58' W 046°18'0 0.0
2018-Feb-20 14:59S 23°58' W 046°18'0 0.0
2018-Feb-20 14:29S 23°58' W 046°18'0 0.0
2018-Feb-20 13:46S 23°58' W 046°18'0 0.0
2018-Feb-20 13:16S 23°58' W 046°18'0 0.0
2018-Feb-20 12:52S 23°58' W 046°18'0 0.0
2018-Feb-20 12:28S 23°58' W 046°18'0 0.0
2018-Feb-20 11:45S 23°58' W 046°18'0 0.0
2018-Feb-20 11:27S 23°58' W 046°18'0 0.0
2018-Feb-20 11:00S 23°58' W 046°18'1 1.9
2018-Feb-20 10:30S 23°58' W 046°18'4 7.1
2018-Feb-20 10:00S 24°01' W 046°20'322 8.9
2018-Feb-18 22:00S 28°54' W 048°48'3718.3 060 / 251011.6 25.020.724.0
2018-Feb-18 20:00S 29°24' W 049°12'99 9.9 060 / 241009.8 26.023.224.0
2018-Feb-18 10:00S 30°48' W 050°12'117 5.8 050 / 231016.610.8 25.022.224.0
2018-Feb-17 14:00S 32°00' W 052°00'   090 / 151021.6

Dump ship's entire track history